sensor_id;sensor_type;location;lat;lon;timestamp;temperature;humidity
78647;DHT22;67961;43.460;3.762;2023-03-20T00:00:34;12.50;68.20
78647;DHT22;67961;43.460;3.762;2023-03-20T00:03:01;12.40;68.20
78647;DHT22;67961;43.460;3.762;2023-03-20T00:05:27;12.30;67.90
78647;DHT22;67961;43.460;3.762;2023-03-20T00:07:55;12.30;68.80
78647;DHT22;67961;43.460;3.762;2023-03-20T00:10:26;12.20;68.70
78647;DHT22;67961;43.460;3.762;2023-03-20T00:12:53;12.20;68.30
78647;DHT22;67961;43.460;3.762;2023-03-20T00:15:25;12.20;68.10
78647;DHT22;67961;43.460;3.762;2023-03-20T00:17:51;12.20;68.20
78647;DHT22;67961;43.460;3.762;2023-03-20T00:20:17;12.10;68.10
78647;DHT22;67961;43.460;3.762;2023-03-20T00:22:43;12.10;68.00
78647;DHT22;67961;43.460;3.762;2023-03-20T00:25:12;12.10;67.50
78647;DHT22;67961;43.460;3.762;2023-03-20T00:27:39;12.10;67.80
78647;DHT22;67961;43.460;3.762;2023-03-20T00:30:18;12.00;67.60
78647;DHT22;67961;43.460;3.762;2023-03-20T00:32:46;12.00;68.50
78647;DHT22;67961;43.460;3.762;2023-03-20T00:35:18;11.90;68.10
78647;DHT22;67961;43.460;3.762;2023-03-20T00:37:44;11.90;68.00
78647;DHT22;67961;43.460;3.762;2023-03-20T00:40:10;12.00;67.90
78647;DHT22;67961;43.460;3.762;2023-03-20T00:42:36;12.00;67.40
78647;DHT22;67961;43.460;3.762;2023-03-20T00:45:02;12.00;67.00
78647;DHT22;67961;43.460;3.762;2023-03-20T00:47:29;12.00;66.30
78647;DHT22;67961;43.460;3.762;2023-03-20T00:49:58;12.10;66.30
78647;DHT22;67961;43.460;3.762;2023-03-20T00:52:24;12.10;66.30
78647;DHT22;67961;43.460;3.762;2023-03-20T00:54:50;12.10;66.00
78647;DHT22;67961;43.460;3.762;2023-03-20T00:57:21;12.10;66.50
78647;DHT22;67961;43.460;3.762;2023-03-20T01:00:04;12.10;66.10
78647;DHT22;67961;43.460;3.762;2023-03-20T01:02:31;12.10;66.50
78647;DHT22;67961;43.460;3.762;2023-03-20T01:04:58;12.10;66.10
78647;DHT22;67961;43.460;3.762;2023-03-20T01:07:24;12.10;66.30
78647;DHT22;67961;43.460;3.762;2023-03-20T01:09:49;12.10;66.40
78647;DHT22;67961;43.460;3.762;2023-03-20T01:12:15;12.10;65.80
78647;DHT22;67961;43.460;3.762;2023-03-20T01:14:42;12.00;66.70
78647;DHT22;67961;43.460;3.762;2023-03-20T01:17:19;12.00;67.10
78647;DHT22;67961;43.460;3.762;2023-03-20T01:19:45;11.90;66.50
78647;DHT22;67961;43.460;3.762;2023-03-20T01:22:12;11.90;65.60
78647;DHT22;67961;43.460;3.762;2023-03-20T01:24:42;11.90;65.90
78647;DHT22;67961;43.460;3.762;2023-03-20T01:27:16;11.90;66.10
78647;DHT22;67961;43.460;3.762;2023-03-20T01:29:42;11.90;66.70
78647;DHT22;67961;43.460;3.762;2023-03-20T01:32:13;11.90;66.90
78647;DHT22;67961;43.460;3.762;2023-03-20T01:34:39;11.90;67.00
78647;DHT22;67961;43.460;3.762;2023-03-20T01:37:12;11.90;66.80
78647;DHT22;67961;43.460;3.762;2023-03-20T01:39:38;11.70;66.80
78647;DHT22;67961;43.460;3.762;2023-03-20T01:42:05;11.70;67.30
78647;DHT22;67961;43.460;3.762;2023-03-20T01:44:33;11.70;66.90
78647;DHT22;67961;43.460;3.762;2023-03-20T01:47:01;11.70;66.70
78647;DHT22;67961;43.460;3.762;2023-03-20T01:51:54;11.70;66.80
78647;DHT22;67961;43.460;3.762;2023-03-20T01:54:31;11.70;66.50
78647;DHT22;67961;43.460;3.762;2023-03-20T01:59:27;11.70;66.80
78647;DHT22;67961;43.460;3.762;2023-03-20T02:01:54;11.70;66.80
78647;DHT22;67961;43.460;3.762;2023-03-20T02:04:25;11.70;66.20
78647;DHT22;67961;43.460;3.762;2023-03-20T02:06:52;11.70;66.20
78647;DHT22;67961;43.460;3.762;2023-03-20T02:09:18;11.70;66.20
78647;DHT22;67961;43.460;3.762;2023-03-20T02:11:47;11.70;66.10
78647;DHT22;67961;43.460;3.762;2023-03-20T02:14:14;11.70;66.20
78647;DHT22;67961;43.460;3.762;2023-03-20T02:16:40;11.60;66.40
78647;DHT22;67961;43.460;3.762;2023-03-20T02:19:12;11.60;65.60
78647;DHT22;67961;43.460;3.762;2023-03-20T02:24:59;11.70;65.30
78647;DHT22;67961;43.460;3.762;2023-03-20T02:47:31;11.80;66.10
78647;DHT22;67961;43.460;3.762;2023-03-20T02:50:26;11.90;64.80
78647;DHT22;67961;43.460;3.762;2023-03-20T02:53:31;11.90;65.00
78647;DHT22;67961;43.460;3.762;2023-03-20T02:56:11;11.90;64.70
78647;DHT22;67961;43.460;3.762;2023-03-20T02:58:45;11.90;64.70
78647;DHT22;67961;43.460;3.762;2023-03-20T03:01:24;11.90;64.90
78647;DHT22;67961;43.460;3.762;2023-03-20T03:03:58;11.90;65.00
78647;DHT22;67961;43.460;3.762;2023-03-20T03:08:54;11.80;65.50
78647;DHT22;67961;43.460;3.762;2023-03-20T03:11:20;11.80;65.50
78647;DHT22;67961;43.460;3.762;2023-03-20T03:13:52;11.70;65.20
78647;DHT22;67961;43.460;3.762;2023-03-20T03:16:26;11.70;65.30
78647;DHT22;67961;43.460;3.762;2023-03-20T03:21:31;11.60;66.00
78647;DHT22;67961;43.460;3.762;2023-03-20T03:23:58;11.50;66.20
78647;DHT22;67961;43.460;3.762;2023-03-20T03:26:27;11.50;66.20
78647;DHT22;67961;43.460;3.762;2023-03-20T03:28:58;11.50;66.20
78647;DHT22;67961;43.460;3.762;2023-03-20T03:31:26;11.50;66.20
78647;DHT22;67961;43.460;3.762;2023-03-20T03:33:55;11.50;66.00
78647;DHT22;67961;43.460;3.762;2023-03-20T03:39:23;11.50;66.10
78647;DHT22;67961;43.460;3.762;2023-03-20T03:44:27;11.30;66.50
78647;DHT22;67961;43.460;3.762;2023-03-20T03:46:59;11.30;66.80
78647;DHT22;67961;43.460;3.762;2023-03-20T03:49:31;11.20;66.90
78647;DHT22;67961;43.460;3.762;2023-03-20T03:52:01;11.10;67.30
78647;DHT22;67961;43.460;3.762;2023-03-20T03:57:07;11.10;67.80
78647;DHT22;67961;43.460;3.762;2023-03-20T03:59:37;11.00;68.00
78647;DHT22;67961;43.460;3.762;2023-03-20T04:02:05;11.00;67.80
78647;DHT22;67961;43.460;3.762;2023-03-20T04:04:33;11.00;67.80
78647;DHT22;67961;43.460;3.762;2023-03-20T04:07:00;11.00;67.70
78647;DHT22;67961;43.460;3.762;2023-03-20T04:09:26;11.00;68.00
78647;DHT22;67961;43.460;3.762;2023-03-20T04:11:52;10.90;67.90
78647;DHT22;67961;43.460;3.762;2023-03-20T04:14:18;10.90;68.00
78647;DHT22;67961;43.460;3.762;2023-03-20T04:16:45;10.80;68.40
78647;DHT22;67961;43.460;3.762;2023-03-20T04:19:11;10.90;67.60
78647;DHT22;67961;43.460;3.762;2023-03-20T04:21:37;10.90;67.80
78647;DHT22;67961;43.460;3.762;2023-03-20T04:24:03;10.90;67.70
78647;DHT22;67961;43.460;3.762;2023-03-20T04:26:29;10.80;67.70
78647;DHT22;67961;43.460;3.762;2023-03-20T04:28:54;10.90;67.60
78647;DHT22;67961;43.460;3.762;2023-03-20T04:31:21;10.90;67.70
78647;DHT22;67961;43.460;3.762;2023-03-20T04:33:47;10.90;67.10
78647;DHT22;67961;43.460;3.762;2023-03-20T04:36:13;10.90;66.20
78647;DHT22;67961;43.460;3.762;2023-03-20T04:38:39;10.90;66.00
78647;DHT22;67961;43.460;3.762;2023-03-20T04:41:05;11.00;66.40
78647;DHT22;67961;43.460;3.762;2023-03-20T04:43:31;11.00;66.00
78647;DHT22;67961;43.460;3.762;2023-03-20T04:45:56;11.00;65.90
78647;DHT22;67961;43.460;3.762;2023-03-20T04:48:22;10.90;66.10
78647;DHT22;67961;43.460;3.762;2023-03-20T04:50:48;10.90;65.80
78647;DHT22;67961;43.460;3.762;2023-03-20T04:53:16;10.90;65.80
78647;DHT22;67961;43.460;3.762;2023-03-20T04:55:43;11.00;66.00
78647;DHT22;67961;43.460;3.762;2023-03-20T04:58:10;11.00;65.90
78647;DHT22;67961;43.460;3.762;2023-03-20T05:00:35;11.00;65.60
78647;DHT22;67961;43.460;3.762;2023-03-20T05:03:01;10.90;65.40
78647;DHT22;67961;43.460;3.762;2023-03-20T05:05:27;10.90;65.70
78647;DHT22;67961;43.460;3.762;2023-03-20T05:07:54;10.90;65.20
78647;DHT22;67961;43.460;3.762;2023-03-20T05:10:22;10.90;64.80
78647;DHT22;67961;43.460;3.762;2023-03-20T05:12:47;10.90;64.80
78647;DHT22;67961;43.460;3.762;2023-03-20T05:15:13;10.90;64.80
78647;DHT22;67961;43.460;3.762;2023-03-20T05:17:39;10.80;64.50
78647;DHT22;67961;43.460;3.762;2023-03-20T05:20:05;10.80;64.50
78647;DHT22;67961;43.460;3.762;2023-03-20T05:22:32;10.80;64.00
78647;DHT22;67961;43.460;3.762;2023-03-20T05:24:57;10.80;64.60
78647;DHT22;67961;43.460;3.762;2023-03-20T05:27:25;10.80;63.60
78647;DHT22;67961;43.460;3.762;2023-03-20T05:29:51;10.90;63.30
78647;DHT22;67961;43.460;3.762;2023-03-20T05:32:16;10.90;63.00
78647;DHT22;67961;43.460;3.762;2023-03-20T05:34:42;10.90;63.00
78647;DHT22;67961;43.460;3.762;2023-03-20T05:37:08;10.90;62.60
78647;DHT22;67961;43.460;3.762;2023-03-20T05:39:33;10.90;62.80
78647;DHT22;67961;43.460;3.762;2023-03-20T05:41:59;10.80;63.00
78647;DHT22;67961;43.460;3.762;2023-03-20T05:44:25;10.80;62.80
78647;DHT22;67961;43.460;3.762;2023-03-20T05:46:51;10.80;62.80
78647;DHT22;67961;43.460;3.762;2023-03-20T05:49:16;10.80;63.40
78647;DHT22;67961;43.460;3.762;2023-03-20T05:51:42;10.80;63.50
78647;DHT22;67961;43.460;3.762;2023-03-20T05:54:08;10.70;63.40
78647;DHT22;67961;43.460;3.762;2023-03-20T05:56:33;10.70;64.20
78647;DHT22;67961;43.460;3.762;2023-03-20T05:58:59;10.70;64.00
78647;DHT22;67961;43.460;3.762;2023-03-20T06:01:25;10.70;64.00
78647;DHT22;67961;43.460;3.762;2023-03-20T06:03:50;10.60;64.10
78647;DHT22;67961;43.460;3.762;2023-03-20T06:06:16;10.60;64.70
78647;DHT22;67961;43.460;3.762;2023-03-20T06:08:42;10.60;64.00
78647;DHT22;67961;43.460;3.762;2023-03-20T06:11:08;10.60;64.10
78647;DHT22;67961;43.460;3.762;2023-03-20T06:13:34;10.60;63.70
78647;DHT22;67961;43.460;3.762;2023-03-20T06:16:00;10.60;63.60
78647;DHT22;67961;43.460;3.762;2023-03-20T06:18:26;10.60;63.70
78647;DHT22;67961;43.460;3.762;2023-03-20T06:20:53;10.60;63.90
78647;DHT22;67961;43.460;3.762;2023-03-20T06:23:20;10.70;64.20
78647;DHT22;67961;43.460;3.762;2023-03-20T06:25:46;10.70;63.70
78647;DHT22;67961;43.460;3.762;2023-03-20T06:28:12;10.70;63.60
78647;DHT22;67961;43.460;3.762;2023-03-20T06:30:37;10.80;64.00
78647;DHT22;67961;43.460;3.762;2023-03-20T06:33:05;10.80;63.00
78647;DHT22;67961;43.460;3.762;2023-03-20T06:35:34;10.80;63.70
78647;DHT22;67961;43.460;3.762;2023-03-20T06:37:59;10.80;63.50
78647;DHT22;67961;43.460;3.762;2023-03-20T06:40:25;10.80;63.60
78647;DHT22;67961;43.460;3.762;2023-03-20T06:42:54;10.80;63.50
78647;DHT22;67961;43.460;3.762;2023-03-20T06:45:21;10.80;63.10
78647;DHT22;67961;43.460;3.762;2023-03-20T06:47:46;10.80;63.20
78647;DHT22;67961;43.460;3.762;2023-03-20T06:50:13;10.80;62.60
78647;DHT22;67961;43.460;3.762;2023-03-20T06:52:38;10.90;62.70
78647;DHT22;67961;43.460;3.762;2023-03-20T06:55:05;10.90;62.90
78647;DHT22;67961;43.460;3.762;2023-03-20T06:57:32;10.90;62.70
78647;DHT22;67961;43.460;3.762;2023-03-20T06:59:58;10.90;62.70
78647;DHT22;67961;43.460;3.762;2023-03-20T07:02:24;10.90;62.70
78647;DHT22;67961;43.460;3.762;2023-03-20T07:04:50;11.00;62.30
78647;DHT22;67961;43.460;3.762;2023-03-20T07:07:16;11.00;62.70
78647;DHT22;67961;43.460;3.762;2023-03-20T07:09:42;11.00;62.90
78647;DHT22;67961;43.460;3.762;2023-03-20T07:12:12;11.00;62.40
78647;DHT22;67961;43.460;3.762;2023-03-20T07:14:39;11.10;62.20
78647;DHT22;67961;43.460;3.762;2023-03-20T07:17:07;11.10;62.00
78647;DHT22;67961;43.460;3.762;2023-03-20T07:19:34;11.10;61.90
78647;DHT22;67961;43.460;3.762;2023-03-20T07:22:02;11.10;62.00
78647;DHT22;67961;43.460;3.762;2023-03-20T07:24:29;11.20;62.00
78647;DHT22;67961;43.460;3.762;2023-03-20T07:26:56;11.20;61.50
78647;DHT22;67961;43.460;3.762;2023-03-20T07:29:21;11.30;61.40
78647;DHT22;67961;43.460;3.762;2023-03-20T07:31:47;11.30;61.40
78647;DHT22;67961;43.460;3.762;2023-03-20T07:34:13;11.30;61.00
78647;DHT22;67961;43.460;3.762;2023-03-20T07:36:38;11.40;60.90
78647;DHT22;67961;43.460;3.762;2023-03-20T07:39:06;11.40;60.50
78647;DHT22;67961;43.460;3.762;2023-03-20T07:41:32;11.50;60.50
78647;DHT22;67961;43.460;3.762;2023-03-20T07:43:58;11.50;60.40
78647;DHT22;67961;43.460;3.762;2023-03-20T07:46:23;11.60;60.20
78647;DHT22;67961;43.460;3.762;2023-03-20T07:48:50;11.70;59.50
78647;DHT22;67961;43.460;3.762;2023-03-20T07:51:16;11.70;60.20
78647;DHT22;67961;43.460;3.762;2023-03-20T07:53:42;11.70;60.70
78647;DHT22;67961;43.460;3.762;2023-03-20T07:56:08;11.70;60.30
78647;DHT22;67961;43.460;3.762;2023-03-20T07:58:34;11.90;60.80
78647;DHT22;67961;43.460;3.762;2023-03-20T08:01:00;11.90;60.50
78647;DHT22;67961;43.460;3.762;2023-03-20T08:03:28;12.00;60.10
78647;DHT22;67961;43.460;3.762;2023-03-20T08:05:54;12.10;60.20
78647;DHT22;67961;43.460;3.762;2023-03-20T08:08:20;12.20;60.10
78647;DHT22;67961;43.460;3.762;2023-03-20T08:10:46;12.20;59.70
78647;DHT22;67961;43.460;3.762;2023-03-20T08:13:12;12.30;60.00
78647;DHT22;67961;43.460;3.762;2023-03-20T08:15:38;12.30;59.60
78647;DHT22;67961;43.460;3.762;2023-03-20T08:18:04;12.20;58.70
78647;DHT22;67961;43.460;3.762;2023-03-20T08:20:30;12.30;59.70
78647;DHT22;67961;43.460;3.762;2023-03-20T08:22:56;12.40;60.00
78647;DHT22;67961;43.460;3.762;2023-03-20T08:25:22;12.50;60.30
78647;DHT22;67961;43.460;3.762;2023-03-20T08:27:48;12.50;59.20
78647;DHT22;67961;43.460;3.762;2023-03-20T08:30:14;12.50;59.40
78647;DHT22;67961;43.460;3.762;2023-03-20T08:32:41;12.50;59.00
78647;DHT22;67961;43.460;3.762;2023-03-20T08:35:07;12.70;58.60
78647;DHT22;67961;43.460;3.762;2023-03-20T08:37:34;12.90;58.60
78647;DHT22;67961;43.460;3.762;2023-03-20T08:40:02;15.20;55.70
78647;DHT22;67961;43.460;3.762;2023-03-20T08:42:28;18.40;48.60
78647;DHT22;67961;43.460;3.762;2023-03-20T08:44:54;20.20;46.30
78647;DHT22;67961;43.460;3.762;2023-03-20T08:47:19;21.10;44.80
78647;DHT22;67961;43.460;3.762;2023-03-20T08:49:45;21.50;43.90
78647;DHT22;67961;43.460;3.762;2023-03-20T08:52:11;21.90;43.20
78647;DHT22;67961;43.460;3.762;2023-03-20T08:54:37;21.80;43.50
78647;DHT22;67961;43.460;3.762;2023-03-20T08:57:02;22.00;42.70
78647;DHT22;67961;43.460;3.762;2023-03-20T08:59:28;21.90;43.40
78647;DHT22;67961;43.460;3.762;2023-03-20T09:01:54;21.60;42.90
78647;DHT22;67961;43.460;3.762;2023-03-20T09:04:19;19.30;46.50
78647;DHT22;67961;43.460;3.762;2023-03-20T09:06:45;17.30;49.70
78647;DHT22;67961;43.460;3.762;2023-03-20T09:09:11;16.40;51.50
78647;DHT22;67961;43.460;3.762;2023-03-20T09:11:40;16.20;52.50
78647;DHT22;67961;43.460;3.762;2023-03-20T09:14:06;16.10;51.20
78647;DHT22;67961;43.460;3.762;2023-03-20T09:16:32;16.10;52.60
78647;DHT22;67961;43.460;3.762;2023-03-20T09:18:57;16.10;52.20
78647;DHT22;67961;43.460;3.762;2023-03-20T09:21:23;16.40;52.40
78647;DHT22;67961;43.460;3.762;2023-03-20T09:23:49;16.60;52.30
78647;DHT22;67961;43.460;3.762;2023-03-20T09:26:14;16.70;51.80
78647;DHT22;67961;43.460;3.762;2023-03-20T09:28:41;16.90;51.30
78647;DHT22;67961;43.460;3.762;2023-03-20T09:31:06;17.00;49.40
78647;DHT22;67961;43.460;3.762;2023-03-20T09:33:32;17.20;50.70
78647;DHT22;67961;43.460;3.762;2023-03-20T09:35:58;17.40;50.50
78647;DHT22;67961;43.460;3.762;2023-03-20T09:38:24;17.40;50.70
78647;DHT22;67961;43.460;3.762;2023-03-20T09:41:01;17.50;50.00
78647;DHT22;67961;43.460;3.762;2023-03-20T09:44:04;17.20;51.20
78647;DHT22;67961;43.460;3.762;2023-03-20T09:51:54;18.00;49.60
78647;DHT22;67961;43.460;3.762;2023-03-20T09:54:29;17.90;50.80
78647;DHT22;67961;43.460;3.762;2023-03-20T09:56:57;17.90;50.30
78647;DHT22;67961;43.460;3.762;2023-03-20T09:59:25;17.80;49.70
78647;DHT22;67961;43.460;3.762;2023-03-20T10:02:13;17.60;48.60
78647;DHT22;67961;43.460;3.762;2023-03-20T10:04:42;17.50;48.20
78647;DHT22;67961;43.460;3.762;2023-03-20T10:07:09;17.50;48.70
78647;DHT22;67961;43.460;3.762;2023-03-20T10:09:39;17.90;50.00
78647;DHT22;67961;43.460;3.762;2023-03-20T10:20:34;18.40;47.20
78647;DHT22;67961;43.460;3.762;2023-03-20T10:23:25;18.10;47.00
78647;DHT22;67961;43.460;3.762;2023-03-20T10:25:57;18.40;46.50
78647;DHT22;67961;43.460;3.762;2023-03-20T10:28:33;18.60;48.30
78647;DHT22;67961;43.460;3.762;2023-03-20T10:41:58;17.60;49.50
78647;DHT22;67961;43.460;3.762;2023-03-20T10:44:33;18.30;46.80
78647;DHT22;67961;43.460;3.762;2023-03-20T10:47:03;18.60;47.10
78647;DHT22;67961;43.460;3.762;2023-03-20T10:49:41;18.80;47.60
78647;DHT22;67961;43.460;3.762;2023-03-20T10:52:13;19.10;46.70
78647;DHT22;67961;43.460;3.762;2023-03-20T10:54:44;19.00;47.60
78647;DHT22;67961;43.460;3.762;2023-03-20T10:57:21;19.10;47.20
78647;DHT22;67961;43.460;3.762;2023-03-20T10:59:49;18.90;47.50
78647;DHT22;67961;43.460;3.762;2023-03-20T11:02:18;18.60;47.40
78647;DHT22;67961;43.460;3.762;2023-03-20T11:04:44;18.40;47.30
78647;DHT22;67961;43.460;3.762;2023-03-20T11:07:41;17.90;47.10
78647;DHT22;67961;43.460;3.762;2023-03-20T11:10:10;17.40;46.50
78647;DHT22;67961;43.460;3.762;2023-03-20T11:12:45;17.80;48.60
78647;DHT22;67961;43.460;3.762;2023-03-20T11:15:25;18.50;46.50
78647;DHT22;67961;43.460;3.762;2023-03-20T11:20:23;18.70;46.20
78647;DHT22;67961;43.460;3.762;2023-03-20T11:22:49;18.50;46.10
78647;DHT22;67961;43.460;3.762;2023-03-20T11:25:45;18.10;45.60
78647;DHT22;67961;43.460;3.762;2023-03-20T11:30:43;17.30;45.80
78647;DHT22;67961;43.460;3.762;2023-03-20T11:33:09;17.00;46.20
78647;DHT22;67961;43.460;3.762;2023-03-20T11:35:35;17.00;48.60
78647;DHT22;67961;43.460;3.762;2023-03-20T11:38:16;17.20;48.70
78647;DHT22;67961;43.460;3.762;2023-03-20T11:40:42;17.20;49.20
78647;DHT22;67961;43.460;3.762;2023-03-20T11:43:12;17.00;49.30
78647;DHT22;67961;43.460;3.762;2023-03-20T11:50:45;18.00;48.00
78647;DHT22;67961;43.460;3.762;2023-03-20T11:53:38;18.10;47.30
78647;DHT22;67961;43.460;3.762;2023-03-20T12:01:35;18.00;46.80
78647;DHT22;67961;43.460;3.762;2023-03-20T12:04:06;17.60;46.80
78647;DHT22;67961;43.460;3.762;2023-03-20T12:06:45;17.60;48.70
78647;DHT22;67961;43.460;3.762;2023-03-20T12:12:01;18.00;49.40
78647;DHT22;67961;43.460;3.762;2023-03-20T12:14:39;18.00;48.10
78647;DHT22;67961;43.460;3.762;2023-03-20T12:19:59;17.70;46.70
78647;DHT22;67961;43.460;3.762;2023-03-20T12:22:32;17.30;46.80
78647;DHT22;67961;43.460;3.762;2023-03-20T12:25:06;17.50;47.80
78647;DHT22;67961;43.460;3.762;2023-03-20T12:27:39;17.50;47.50
78647;DHT22;67961;43.460;3.762;2023-03-20T12:30:21;17.60;48.00
78647;DHT22;67961;43.460;3.762;2023-03-20T12:35:29;17.80;48.50
78647;DHT22;67961;43.460;3.762;2023-03-20T12:37:56;17.80;48.10
78647;DHT22;67961;43.460;3.762;2023-03-20T12:40:33;17.80;47.50
78647;DHT22;67961;43.460;3.762;2023-03-20T12:43:10;18.00;47.30
78647;DHT22;67961;43.460;3.762;2023-03-20T12:45:40;17.80;47.00
78647;DHT22;67961;43.460;3.762;2023-03-20T12:48:14;17.80;47.30
78647;DHT22;67961;43.460;3.762;2023-03-20T12:51:34;17.80;47.60
78647;DHT22;67961;43.460;3.762;2023-03-20T12:54:14;17.80;47.10
78647;DHT22;67961;43.460;3.762;2023-03-20T13:05:21;17.70;46.90
78647;DHT22;67961;43.460;3.762;2023-03-20T13:08:48;17.70;46.60
78647;DHT22;67961;43.460;3.762;2023-03-20T13:22:24;17.50;46.70
78647;DHT22;67961;43.460;3.762;2023-03-20T13:25:27;17.60;46.70
78647;DHT22;67961;43.460;3.762;2023-03-20T13:28:03;17.70;46.20
78647;DHT22;67961;43.460;3.762;2023-03-20T13:30:42;17.50;46.40
78647;DHT22;67961;43.460;3.762;2023-03-20T13:35:54;17.40;46.80
78647;DHT22;67961;43.460;3.762;2023-03-20T13:38:23;17.50;47.70
78647;DHT22;67961;43.460;3.762;2023-03-20T13:41:02;17.50;47.40
78647;DHT22;67961;43.460;3.762;2023-03-20T13:46:09;17.70;46.80
78647;DHT22;67961;43.460;3.762;2023-03-20T13:48:38;17.60;46.80
78647;DHT22;67961;43.460;3.762;2023-03-20T13:53:44;17.50;47.10
78647;DHT22;67961;43.460;3.762;2023-03-20T13:56:29;17.60;47.90
78647;DHT22;67961;43.460;3.762;2023-03-20T14:05:10;17.50;46.30
78647;DHT22;67961;43.460;3.762;2023-03-20T14:07:38;17.50;46.00
78647;DHT22;67961;43.460;3.762;2023-03-20T14:12:55;17.50;47.50
78647;DHT22;67961;43.460;3.762;2023-03-20T14:15:26;17.50;47.00
78647;DHT22;67961;43.460;3.762;2023-03-20T14:17:52;17.50;46.90
78647;DHT22;67961;43.460;3.762;2023-03-20T14:20:34;17.50;47.10
78647;DHT22;67961;43.460;3.762;2023-03-20T14:23:01;17.50;48.00
78647;DHT22;67961;43.460;3.762;2023-03-20T14:25:32;17.50;46.60
78647;DHT22;67961;43.460;3.762;2023-03-20T14:30:47;17.40;47.90
78647;DHT22;67961;43.460;3.762;2023-03-20T14:35:49;17.40;48.80
78647;DHT22;67961;43.460;3.762;2023-03-20T14:41:29;17.40;48.90
78647;DHT22;67961;43.460;3.762;2023-03-20T14:46:51;17.20;48.40
78647;DHT22;67961;43.460;3.762;2023-03-20T14:52:29;17.20;48.90
78647;DHT22;67961;43.460;3.762;2023-03-20T14:55:45;17.20;48.70
78647;DHT22;67961;43.460;3.762;2023-03-20T14:58:02;17.00;48.90
78647;DHT22;67961;43.460;3.762;2023-03-20T15:00:33;17.00;49.10
78647;DHT22;67961;43.460;3.762;2023-03-20T15:03:09;17.00;49.70
78647;DHT22;67961;43.460;3.762;2023-03-20T15:05:37;17.20;48.50
78647;DHT22;67961;43.460;3.762;2023-03-20T15:10:35;17.20;50.40
78647;DHT22;67961;43.460;3.762;2023-03-20T15:13:04;17.00;50.20
78647;DHT22;67961;43.460;3.762;2023-03-20T15:15:31;17.10;51.10
78647;DHT22;67961;43.460;3.762;2023-03-20T15:18:10;17.20;50.80
78647;DHT22;67961;43.460;3.762;2023-03-20T15:20:36;17.20;50.10
78647;DHT22;67961;43.460;3.762;2023-03-20T15:23:02;17.10;49.50
78647;DHT22;67961;43.460;3.762;2023-03-20T15:25:38;17.20;48.90
78647;DHT22;67961;43.460;3.762;2023-03-20T15:28:12;17.20;48.90
78647;DHT22;67961;43.460;3.762;2023-03-20T15:30:39;17.10;48.60
78647;DHT22;67961;43.460;3.762;2023-03-20T15:33:06;17.10;48.50
78647;DHT22;67961;43.460;3.762;2023-03-20T15:35:33;17.20;49.30
78647;DHT22;67961;43.460;3.762;2023-03-20T15:38:04;17.20;49.20
78647;DHT22;67961;43.460;3.762;2023-03-20T15:40:31;17.10;48.80
78647;DHT22;67961;43.460;3.762;2023-03-20T15:45:39;17.00;50.70
78647;DHT22;67961;43.460;3.762;2023-03-20T15:48:06;17.00;50.00
78647;DHT22;67961;43.460;3.762;2023-03-20T15:50:35;16.90;49.70
78647;DHT22;67961;43.460;3.762;2023-03-20T15:53:03;16.90;49.00
78647;DHT22;67961;43.460;3.762;2023-03-20T15:55:29;16.80;50.10
78647;DHT22;67961;43.460;3.762;2023-03-20T15:57:59;16.80;49.30
78647;DHT22;67961;43.460;3.762;2023-03-20T16:02:55;16.70;50.60
78647;DHT22;67961;43.460;3.762;2023-03-20T16:05:25;16.70;50.40
78647;DHT22;67961;43.460;3.762;2023-03-20T16:07:50;16.70;51.60
78647;DHT22;67961;43.460;3.762;2023-03-20T16:10:21;16.70;51.60
78647;DHT22;67961;43.460;3.762;2023-03-20T16:12:51;16.70;51.50
78647;DHT22;67961;43.460;3.762;2023-03-20T16:15:20;16.60;50.50
78647;DHT22;67961;43.460;3.762;2023-03-20T16:17:48;16.60;50.00
78647;DHT22;67961;43.460;3.762;2023-03-20T16:20:16;16.60;50.30
78647;DHT22;67961;43.460;3.762;2023-03-20T16:22:44;16.60;50.90
78647;DHT22;67961;43.460;3.762;2023-03-20T16:25:15;16.60;50.50
78647;DHT22;67961;43.460;3.762;2023-03-20T16:27:42;16.60;50.00
78647;DHT22;67961;43.460;3.762;2023-03-20T16:30:22;16.50;50.50
78647;DHT22;67961;43.460;3.762;2023-03-20T16:32:54;16.50;51.00
78647;DHT22;67961;43.460;3.762;2023-03-20T16:35:26;16.40;51.50
78647;DHT22;67961;43.460;3.762;2023-03-20T16:37:56;16.40;51.90
78647;DHT22;67961;43.460;3.762;2023-03-20T16:40:30;16.40;51.90
78647;DHT22;67961;43.460;3.762;2023-03-20T16:43:05;16.20;52.50
78647;DHT22;67961;43.460;3.762;2023-03-20T16:45:33;16.20;52.00
78647;DHT22;67961;43.460;3.762;2023-03-20T16:48:24;16.10;51.20
78647;DHT22;67961;43.460;3.762;2023-03-20T16:50:58;16.00;51.70
78647;DHT22;67961;43.460;3.762;2023-03-20T16:53:28;16.00;51.90
78647;DHT22;67961;43.460;3.762;2023-03-20T16:55:56;15.90;52.10
78647;DHT22;67961;43.460;3.762;2023-03-20T16:58:31;15.80;51.40
78647;DHT22;67961;43.460;3.762;2023-03-20T17:01:03;15.80;51.30
78647;DHT22;67961;43.460;3.762;2023-03-20T17:06:35;15.60;51.90
78647;DHT22;67961;43.460;3.762;2023-03-20T17:09:20;15.60;51.80
78647;DHT22;67961;43.460;3.762;2023-03-20T17:12:12;15.60;51.80
78647;DHT22;67961;43.460;3.762;2023-03-20T17:14:39;15.50;53.50
78647;DHT22;67961;43.460;3.762;2023-03-20T17:17:18;15.40;52.70
78647;DHT22;67961;43.460;3.762;2023-03-20T17:19:46;15.40;52.90
78647;DHT22;67961;43.460;3.762;2023-03-20T17:22:16;15.30;52.70
78647;DHT22;67961;43.460;3.762;2023-03-20T17:24:42;15.30;53.10
78647;DHT22;67961;43.460;3.762;2023-03-20T17:27:11;15.20;53.50
78647;DHT22;67961;43.460;3.762;2023-03-20T17:29:38;15.20;53.70
78647;DHT22;67961;43.460;3.762;2023-03-20T17:32:18;15.20;53.50
78647;DHT22;67961;43.460;3.762;2023-03-20T17:34:45;15.00;53.70
78647;DHT22;67961;43.460;3.762;2023-03-20T17:37:13;15.00;53.80
78647;DHT22;67961;43.460;3.762;2023-03-20T17:39:40;15.00;53.70
78647;DHT22;67961;43.460;3.762;2023-03-20T17:42:20;15.00;54.50
78647;DHT22;67961;43.460;3.762;2023-03-20T17:44:46;14.90;54.70
78647;DHT22;67961;43.460;3.762;2023-03-20T17:47:17;14.80;55.00
78647;DHT22;67961;43.460;3.762;2023-03-20T17:49:44;14.80;55.50
78647;DHT22;67961;43.460;3.762;2023-03-20T17:52:18;14.70;55.70
78647;DHT22;67961;43.460;3.762;2023-03-20T17:54:45;14.70;55.50
78647;DHT22;67961;43.460;3.762;2023-03-20T17:59:46;14.60;56.70
78647;DHT22;67961;43.460;3.762;2023-03-20T18:02:12;14.50;56.60
78647;DHT22;67961;43.460;3.762;2023-03-20T18:04:37;14.40;57.00
78647;DHT22;67961;43.460;3.762;2023-03-20T18:07:03;14.40;57.10
78647;DHT22;67961;43.460;3.762;2023-03-20T18:09:29;14.40;57.30
78647;DHT22;67961;43.460;3.762;2023-03-20T18:11:55;14.30;56.70
78647;DHT22;67961;43.460;3.762;2023-03-20T18:14:21;14.30;56.50
78647;DHT22;67961;43.460;3.762;2023-03-20T18:16:47;14.30;56.20
78647;DHT22;67961;43.460;3.762;2023-03-20T18:19:31;14.30;55.70